Archival Weather

Heathrow

London, United Kingdom (EGLL)

Report from: Friday, September 23, 2022 1:20 PM BST
Current time: Wednesday, December 6, 2023 8:28 AM GMT

Current weather – Weather history – Daily summaries
Weather forecast

Temperature18.0°C (64.4°F)
Dew point12.0°C (53.6°F)
Winds 5 kts (2.6 m/s, 5.8 mph) Vrb
Winds variableWinds variable from North-Northwest (330°) to East (100°)
Visibility6.2 mi. (10 km)
Clouds Few clouds 2,300 ft. (701 m)
Scattered clouds 4,600 ft. (1,402 m)
Altimeter29.97 in.Hg (1015 mB)
Relative humidity68 %
Density altitude490 ft. (149 m)
Remarks Fully automated report
No significant changes expected in the next two hours
Flight conditions Visual Meteorological Conditions
Raw dataEGLL 231220Z AUTO 04005KT 330V100 9999 FEW023 SCT046 18/12 Q1015 NOSIG
An error has occurred. This application may no longer respond until reloaded. Reload 🗙